Time;durP1;ratioP1;P1;durP2;ratioP2;P2;SDS_P1;SDS_P2;PMS_P1;PMS_P2;Temp;Humidity;BMP_temperature;BMP_pressure;BME280_temperature;BME280_humidity;BME280_pressure;Samples;Min_cycle;Max_cycle;Signal;HPM_P1;HPM_P2
2023/06/02 00:00:00;;;;;;;0.30;0.30;;;11.00;99.90;;;;;;4937025;28;20132;-71
2023/06/02 00:02:29;;;;;;;0.40;0.40;;;10.90;99.90;;;;;;4933593;29;20048;-71
2023/06/02 00:04:59;;;;;;;0.40;0.40;;;11.00;99.90;;;;;;4926319;29;20067;-71
2023/06/02 00:07:28;;;;;;;0.45;0.45;;;11.00;99.90;;;;;;4933611;29;20524;-71
2023/06/02 00:09:58;;;;;;;0.60;0.60;;;11.00;99.90;;;;;;4927903;29;20070;-71
2023/06/02 00:12:24;;;;;;;2.45;1.00;;;11.00;99.90;;;;;;4934389;29;20043;-71
2023/06/02 00:14:50;;;;;;;0.50;0.50;;;11.00;99.90;;;;;;4940370;28;20059;-71
2023/06/02 00:17:18;;;;;;;0.60;0.60;;;11.00;99.90;;;;;;4934526;29;20534;-71
2023/06/02 00:19:45;;;;;;;0.32;0.32;;;10.90;99.90;;;;;;4940167;28;20039;-71
2023/06/02 00:22:14;;;;;;;0.68;0.68;;;10.90;99.90;;;;;;4935718;29;20059;-71
2023/06/02 00:24:42;;;;;;;0.47;0.47;;;10.90;99.90;;;;;;4932926;29;20055;-71
2023/06/02 00:27:09;;;;;;;0.85;0.85;;;10.90;99.90;;;;;;4936791;29;20550;-71
2023/06/02 00:29:35;;;;;;;1.58;0.82;;;10.90;99.90;;;;;;4935253;28;20172;-71
2023/06/02 00:32:01;;;;;;;0.57;0.57;;;10.90;99.90;;;;;;4934956;29;20123;-71
2023/06/02 00:34:27;;;;;;;0.82;0.80;;;10.90;99.90;;;;;;4938416;29;20054;-71
2023/06/02 00:36:52;;;;;;;0.68;0.68;;;10.90;99.90;;;;;;4938330;29;20052;-71
2023/06/02 00:39:18;;;;;;;1.45;1.35;;;10.90;99.90;;;;;;4927791;29;20044;-71
2023/06/02 00:41:46;;;;;;;0.30;0.30;;;10.90;99.90;;;;;;4928610;29;20556;-71
2023/06/02 00:44:13;;;;;;;0.40;0.40;;;10.80;99.90;;;;;;4934620;29;20040;-71
2023/06/02 00:46:39;;;;;;;0.50;0.50;;;10.80;99.90;;;;;;4932371;29;20047;-71
2023/06/02 00:49:05;;;;;;;0.45;0.45;;;10.80;99.90;;;;;;4933449;29;20386;-71
2023/06/02 00:51:31;;;;;;;0.57;0.57;;;10.70;99.90;;;;;;4933431;29;20105;-71
2023/06/02 00:53:57;;;;;;;0.35;0.35;;;10.70;99.90;;;;;;4940904;29;20067;-71
2023/06/02 00:56:23;;;;;;;1.00;0.57;;;10.70;99.90;;;;;;4931876;29;20039;-71
2023/06/02 00:58:49;;;;;;;0.40;0.40;;;10.70;99.90;;;;;;4931508;29;20048;-71
2023/06/02 01:01:18;;;;;;;0.30;0.30;;;10.60;99.90;;;;;;4933339;29;20047;-71
2023/06/02 01:03:46;;;;;;;0.40;0.40;;;10.60;99.90;;;;;;4942547;29;20450;-70
2023/06/02 01:06:14;;;;;;;0.40;0.40;;;10.60;99.90;;;;;;4935244;29;20047;-71
2023/06/02 01:08:43;;;;;;;0.43;0.43;;;10.60;99.90;;;;;;4945296;29;20453;-71
2023/06/02 01:11:09;;;;;;;0.43;0.43;;;10.50;99.90;;;;;;4931120;29;20059;-71
2023/06/02 01:13:35;;;;;;;0.57;0.57;;;10.50;99.90;;;;;;4937298;29;20047;-71
2023/06/02 01:16:02;;;;;;;1.08;0.98;;;10.50;99.90;;;;;;4941781;29;20048;-71
2023/06/02 01:18:31;;;;;;;0.40;0.40;;;10.50;99.90;;;;;;4940611;29;20048;-71
2023/06/02 01:20:58;;;;;;;0.52;0.52;;;10.50;99.90;;;;;;4940791;29;20035;-71
2023/06/02 01:23:36;;;;;;;0.73;0.73;;;10.50;99.90;;;;;;4938126;29;20382;-71
2023/06/02 01:26:05;;;;;;;0.57;0.57;;;10.40;99.90;;;;;;4931388;29;20115;-71
2023/06/02 01:28:31;;;;;;;0.93;0.93;;;10.40;99.90;;;;;;4941100;29;20637;-71
2023/06/02 01:31:12;;;;;;;0.40;0.40;;;10.40;99.90;;;;;;4932913;29;20103;-72
2023/06/02 01:33:51;;;;;;;1.27;1.00;;;10.40;99.90;;;;;;4933236;29;20039;-71
2023/06/02 01:36:20;;;;;;;0.75;0.70;;;10.40;99.90;;;;;;4940016;29;20039;-71
2023/06/02 01:38:48;;;;;;;0.47;0.47;;;10.50;99.90;;;;;;4941130;29;20047;-71
2023/06/02 01:41:15;;;;;;;0.55;0.55;;;10.40;99.90;;;;;;4932756;29;20040;-71
2023/06/02 01:43:42;;;;;;;0.70;0.70;;;10.40;99.90;;;;;;4941752;29;20467;-71
2023/06/02 01:46:10;;;;;;;2.28;0.73;;;10.40;99.90;;;;;;4944160;29;20543;-71
2023/06/02 01:48:35;;;;;;;0.82;0.60;;;10.40;99.90;;;;;;4930280;29;20056;-71
2023/06/02 01:51:02;;;;;;;0.50;0.50;;;10.40;99.90;;;;;;4942863;29;20062;-71
2023/06/02 01:53:27;;;;;;;0.35;0.35;;;10.40;99.90;;;;;;4935000;29;20436;-71
2023/06/02 01:55:54;;;;;;;0.50;0.50;;;10.40;99.90;;;;;;4937459;28;21187;-71
2023/06/02 01:58:20;;;;;;;0.40;0.40;;;10.40;99.90;;;;;;4944561;29;20048;-71
2023/06/02 02:00:46;;;;;;;0.43;0.43;;;10.50;99.90;;;;;;4942547;29;20360;-71
2023/06/02 02:03:12;;;;;;;0.80;0.80;;;10.40;99.90;;;;;;4937252;28;20039;-71
2023/06/02 02:05:38;;;;;;;0.40;0.40;;;10.50;99.90;;;;;;4943290;29;20055;-71
2023/06/02 02:08:04;;;;;;;0.43;0.43;;;10.50;99.90;;;;;;4939767;28;20146;-71
2023/06/02 02:10:30;;;;;;;0.52;0.52;;;10.50;99.90;;;;;;4940331;28;20039;-71
2023/06/02 02:12:56;;;;;;;0.40;0.40;;;10.40;99.90;;;;;;4924245;29;20055;-71
2023/06/02 02:15:22;;;;;;;0.35;0.35;;;10.50;99.90;;;;;;4934751;29;20516;-71
2023/06/02 02:17:49;;;;;;;0.32;0.32;;;10.50;99.90;;;;;;4942904;29;20047;-71
2023/06/02 02:20:18;;;;;;;0.50;0.50;;;10.50;99.90;;;;;;4942456;28;20055;-71
2023/06/02 02:22:46;;;;;;;0.30;0.30;;;10.50;99.90;;;;;;4927656;29;20048;-71
2023/06/02 02:25:12;;;;;;;0.40;0.40;;;10.50;99.90;;;;;;4925171;29;20131;-71
2023/06/02 02:27:38;;;;;;;0.52;0.52;;;10.50;99.90;;;;;;4915692;29;20044;-71
2023/06/02 02:30:06;;;;;;;0.40;0.40;;;10.60;99.90;;;;;;4940644;29;20272;-71
2023/06/02 02:32:35;;;;;;;0.40;0.40;;;10.60;99.90;;;;;;4943822;29;20071;-71
2023/06/02 02:35:03;;;;;;;0.50;0.50;;;10.60;99.90;;;;;;4945901;28;20142;-71
2023/06/02 02:37:28;;;;;;;0.47;0.47;;;10.60;99.90;;;;;;4926576;29;20048;-71
2023/06/02 02:39:54;;;;;;;0.50;0.50;;;10.60;99.90;;;;;;4934065;29;20119;-71
2023/06/02 02:42:20;;;;;;;0.40;0.40;;;10.60;99.90;;;;;;4940599;28;20043;-71
2023/06/02 02:44:45;;;;;;;0.43;0.43;;;10.60;99.90;;;;;;4941454;29;20115;-71
2023/06/02 02:47:12;;;;;;;1.00;0.60;;;10.60;99.90;;;;;;4944625;29;20055;-71
2023/06/02 02:49:37;;;;;;;0.40;0.40;;;10.60;99.90;;;;;;4935353;29;20051;-71
2023/06/02 02:52:03;;;;;;;1.10;1.10;;;10.60;99.90;;;;;;4934429;29;20087;-71
2023/06/02 02:54:29;;;;;;;0.50;0.50;;;10.60;99.90;;;;;;4932584;29;20044;-71
2023/06/02 02:56:54;;;;;;;0.77;0.77;;;10.60;99.90;;;;;;4927443;29;20503;-71
2023/06/02 02:59:21;;;;;;;0.40;0.40;;;10.50;99.90;;;;;;4940271;29;20075;-71
2023/06/02 03:01:47;;;;;;;0.88;0.88;;;10.60;99.90;;;;;;4940105;29;20051;-71
2023/06/02 03:04:18;;;;;;;0.60;0.60;;;10.60;99.90;;;;;;4931599;29;20540;-70
2023/06/02 03:06:45;;;;;;;0.40;0.40;;;10.60;99.90;;;;;;4938235;29;20078;-71
2023/06/02 03:09:12;;;;;;;0.40;0.40;;;10.60;99.90;;;;;;4932290;29;20090;-71
2023/06/02 03:11:37;;;;;;;0.57;0.57;;;10.60;99.90;;;;;;4940176;29;20118;-71
2023/06/02 03:14:03;;;;;;;0.38;0.38;;;10.60;99.90;;;;;;4935378;29;20489;-71
2023/06/02 03:16:29;;;;;;;0.40;0.40;;;10.70;99.90;;;;;;4925221;29;20039;-71
2023/06/02 03:18:55;;;;;;;0.43;0.43;;;10.70;99.90;;;;;;4934322;29;20055;-71
2023/06/02 03:21:22;;;;;;;0.30;0.30;;;10.70;99.90;;;;;;4940069;29;20055;-71
2023/06/02 03:23:49;;;;;;;0.60;0.60;;;10.70;99.90;;;;;;4941595;29;20066;-71
2023/06/02 03:26:15;;;;;;;0.50;0.50;;;10.70;99.90;;;;;;4928205;29;20424;-71
2023/06/02 03:28:42;;;;;;;0.40;0.40;;;10.70;99.90;;;;;;4940309;29;20052;-71
2023/06/02 03:31:08;;;;;;;0.90;0.80;;;10.70;99.90;;;;;;4933063;29;20464;-71
2023/06/02 03:33:35;;;;;;;0.40;0.40;;;10.70;99.90;;;;;;4930010;29;20774;-71
2023/06/02 03:36:00;;;;;;;0.95;0.90;;;10.70;99.90;;;;;;4939346;29;20051;-71
2023/06/02 03:38:26;;;;;;;0.55;0.55;;;10.70;99.90;;;;;;4931529;29;20058;-71
2023/06/02 03:40:52;;;;;;;0.40;0.40;;;10.70;99.90;;;;;;4937838;29;20379;-71
2023/06/02 03:43:20;;;;;;;0.40;0.40;;;10.70;99.90;;;;;;4933733;28;20142;-70
2023/06/02 03:45:45;;;;;;;0.30;0.30;;;10.80;99.90;;;;;;4927947;29;20054;-70
2023/06/02 03:48:11;;;;;;;0.40;0.40;;;10.80;99.90;;;;;;4942810;29;20416;-70
2023/06/02 03:50:38;;;;;;;0.32;0.32;;;10.80;99.90;;;;;;4927817;29;20416;-70
2023/06/02 03:53:05;;;;;;;0.30;0.30;;;10.80;99.90;;;;;;4936622;29;20051;-70
2023/06/02 03:55:30;;;;;;;0.57;0.57;;;10.80;99.90;;;;;;4937445;29;20044;-69
2023/06/02 03:57:56;;;;;;;0.50;0.50;;;10.80;99.90;;;;;;4929475;29;20394;-70
2023/06/02 04:00:22;;;;;;;0.40;0.40;;;10.80;99.90;;;;;;4933595;29;20070;-70
2023/06/02 04:02:47;;;;;;;0.30;0.30;;;10.80;99.90;;;;;;4937277;28;20393;-70
2023/06/02 04:05:14;;;;;;;0.30;0.30;;;10.80;99.90;;;;;;4954397;28;20183;-70
2023/06/02 04:07:40;;;;;;;0.40;0.40;;;10.90;99.90;;;;;;4930158;28;20039;-70
2023/06/02 04:10:06;;;;;;;0.40;0.40;;;10.90;99.90;;;;;;4930918;29;20039;-70
2023/06/02 04:12:32;;;;;;;0.40;0.40;;;10.90;99.90;;;;;;4941588;28;20035;-71
2023/06/02 04:14:59;;;;;;;0.38;0.38;;;10.90;99.90;;;;;;4934846;29;20043;-71
2023/06/02 04:17:25;;;;;;;0.50;0.50;;;10.90;99.90;;;;;;4930993;29;20559;-71
2023/06/02 04:19:52;;;;;;;0.60;0.60;;;10.90;99.90;;;;;;4944412;29;20051;-71
2023/06/02 04:22:19;;;;;;;0.90;0.85;;;10.90;99.90;;;;;;4931269;29;20043;-71
2023/06/02 04:24:45;;;;;;;1.20;0.40;;;11.00;99.90;;;;;;4927723;29;20054;-71
2023/06/02 04:27:11;;;;;;;0.90;0.63;;;11.00;99.90;;;;;;4937858;29;20106;-71
2023/06/02 04:29:37;;;;;;;0.40;0.40;;;11.00;99.90;;;;;;4933309;29;20691;-70
2023/06/02 04:32:03;;;;;;;0.38;0.38;;;11.00;99.90;;;;;;4930741;29;20083;-70
2023/06/02 04:34:31;;;;;;;1.10;0.77;;;11.10;99.90;;;;;;4931497;29;20039;-70
2023/06/02 04:36:57;;;;;;;4.18;0.77;;;11.10;99.90;;;;;;4933936;29;20047;-70
2023/06/02 04:39:23;;;;;;;0.45;0.45;;;11.10;99.90;;;;;;4942024;29;20054;-70
2023/06/02 04:41:49;;;;;;;0.40;0.40;;;11.10;99.90;;;;;;4938903;29;20043;-70
2023/06/02 04:44:16;;;;;;;0.40;0.40;;;11.10;99.90;;;;;;4941941;29;20378;-70
2023/06/02 04:46:43;;;;;;;0.50;0.50;;;11.10;99.90;;;;;;4941990;29;20052;-70
2023/06/02 04:49:09;;;;;;;0.50;0.50;;;11.20;99.90;;;;;;4934938;29;20570;-70
2023/06/02 04:51:35;;;;;;;0.30;0.30;;;11.20;99.90;;;;;;4940285;29;20043;-70
2023/06/02 04:54:01;;;;;;;0.30;0.30;;;11.30;99.90;;;;;;4942314;28;20050;-70
2023/06/02 04:56:27;;;;;;;0.75;0.75;;;11.30;99.90;;;;;;4936431;28;20051;-70
2023/06/02 04:58:53;;;;;;;0.40;0.40;;;11.30;99.90;;;;;;4939763;29;20062;-71
2023/06/02 05:01:19;;;;;;;0.65;0.65;;;11.30;99.90;;;;;;4945559;29;20396;-70
2023/06/02 05:03:45;;;;;;;1.20;1.10;;;11.40;99.90;;;;;;4919700;29;20059;-71
2023/06/02 05:06:12;;;;;;;0.30;0.30;;;11.40;99.90;;;;;;4938947;28;20174;-70
2023/06/02 05:08:37;;;;;;;0.43;0.43;;;11.50;99.90;;;;;;4943566;29;20139;-70
2023/06/02 05:11:03;;;;;;;0.40;0.40;;;11.50;99.90;;;;;;4945305;29;20489;-70
2023/06/02 05:13:29;;;;;;;0.70;0.70;;;11.50;99.90;;;;;;4941805;29;20048;-70
2023/06/02 05:15:55;;;;;;;0.40;0.40;;;11.60;99.90;;;;;;4935660;29;20546;-70
2023/06/02 05:18:22;;;;;;;0.20;0.20;;;11.60;99.90;;;;;;4937654;29;20043;-70
2023/06/02 05:20:48;;;;;;;0.40;0.40;;;11.60;99.90;;;;;;4944389;29;20126;-70
2023/06/02 05:23:13;;;;;;;0.40;0.40;;;11.60;99.90;;;;;;4937157;28;20115;-71
2023/06/02 05:25:40;;;;;;;0.63;0.63;;;11.70;99.90;;;;;;4933343;29;20389;-70
2023/06/02 05:28:06;;;;;;;0.73;0.73;;;11.70;99.90;;;;;;4942652;29;20039;-70
2023/06/02 05:30:32;;;;;;;0.50;0.50;;;11.80;99.90;;;;;;4938668;29;20066;-70
2023/06/02 05:32:57;;;;;;;0.57;0.57;;;11.80;99.90;;;;;;4933145;29;20052;-71
2023/06/02 05:35:23;;;;;;;0.60;0.60;;;11.80;99.90;;;;;;4936304;29;20039;-70
2023/06/02 05:37:48;;;;;;;0.60;0.60;;;11.90;99.90;;;;;;4940377;29;20485;-70
2023/06/02 05:40:14;;;;;;;0.30;0.30;;;11.90;99.90;;;;;;4936131;29;20035;-71
2023/06/02 05:42:40;;;;;;;1.45;0.98;;;11.90;99.90;;;;;;4935731;29;20047;-70
2023/06/02 05:45:06;;;;;;;0.40;0.40;;;12.00;99.90;;;;;;4930158;29;20047;-71
2023/06/02 05:47:32;;;;;;;0.80;0.80;;;12.00;99.90;;;;;;4939640;29;20159;-71
2023/06/02 05:49:58;;;;;;;0.40;0.40;;;12.00;99.90;;;;;;4920353;29;20540;-71
2023/06/02 05:52:24;;;;;;;0.60;0.60;;;12.10;99.90;;;;;;4930652;29;20040;-71
2023/06/02 05:54:50;;;;;;;0.30;0.30;;;12.00;99.90;;;;;;4931308;29;20044;-71
2023/06/02 05:57:17;;;;;;;0.30;0.30;;;12.10;99.90;;;;;;4933109;29;20039;-71
2023/06/02 05:59:43;;;;;;;0.50;0.50;;;12.10;99.90;;;;;;4929665;29;20771;-71
2023/06/02 06:02:09;;;;;;;0.63;0.43;;;12.20;99.90;;;;;;4931759;29;20075;-71
2023/06/02 06:04:35;;;;;;;0.50;0.50;;;12.20;99.90;;;;;;4932188;29;20040;-71
2023/06/02 06:07:02;;;;;;;0.40;0.40;;;12.20;99.90;;;;;;4940809;29;20051;-71
2023/06/02 06:09:28;;;;;;;0.50;0.50;;;12.20;99.90;;;;;;4928431;28;20054;-71
2023/06/02 06:11:54;;;;;;;0.40;0.40;;;12.30;99.90;;;;;;4938438;29;20040;-70
2023/06/02 06:14:19;;;;;;;0.38;0.38;;;12.30;99.90;;;;;;4934364;29;20043;-71
2023/06/02 06:16:45;;;;;;;0.20;0.20;;;12.30;99.90;;;;;;4941773;28;20159;-71
2023/06/02 06:19:11;;;;;;;0.50;0.50;;;12.40;99.90;;;;;;4934487;29;20409;-71
2023/06/02 06:21:37;;;;;;;0.32;0.32;;;12.40;99.90;;;;;;4942734;29;20050;-71
2023/06/02 06:24:06;;;;;;;0.30;0.30;;;12.40;99.90;;;;;;4934372;29;20473;-71
2023/06/02 06:26:32;;;;;;;0.50;0.50;;;12.50;99.90;;;;;;4928294;29;20083;-70
2023/06/02 06:28:58;;;;;;;0.30;0.30;;;12.60;99.90;;;;;;4937689;29;20485;-71
2023/06/02 06:31:24;;;;;;;0.60;0.60;;;12.60;99.90;;;;;;4930000;29;20485;-71
2023/06/02 06:33:50;;;;;;;0.55;0.55;;;12.60;99.90;;;;;;4927756;29;20047;-71
2023/06/02 06:36:15;;;;;;;0.50;0.50;;;12.70;99.90;;;;;;4933507;29;20053;-70
2023/06/02 06:38:41;;;;;;;0.40;0.40;;;12.70;99.90;;;;;;4930187;29;20048;-71
2023/06/02 06:41:07;;;;;;;0.30;0.30;;;12.70;99.90;;;;;;4937576;29;20043;-71
2023/06/02 06:43:32;;;;;;;0.85;0.77;;;12.80;99.90;;;;;;4930192;29;20051;-71
2023/06/02 06:46:01;;;;;;;1.02;0.65;;;12.90;99.90;;;;;;4941583;29;20434;-70
2023/06/02 06:48:27;;;;;;;2.40;2.05;;;12.90;99.90;;;;;;4930870;29;20058;-71
2023/06/02 06:50:53;;;;;;;0.57;0.57;;;13.00;99.90;;;;;;4926872;29;20218;-71
2023/06/02 06:53:19;;;;;;;0.60;0.60;;;13.00;99.90;;;;;;4933075;28;20429;-71
2023/06/02 06:55:45;;;;;;;6.43;1.25;;;13.10;99.90;;;;;;4929168;29;20047;-71
2023/06/02 06:58:11;;;;;;;2.63;0.73;;;13.10;99.90;;;;;;4934509;29;20106;-71
2023/06/02 07:00:38;;;;;;;2.03;1.13;;;13.20;99.90;;;;;;4930314;29;20114;-70
2023/06/02 07:03:04;;;;;;;0.57;0.57;;;13.30;99.90;;;;;;4934233;29;20048;-71
2023/06/02 07:05:30;;;;;;;0.70;0.70;;;13.40;99.90;;;;;;4944884;29;20042;-71
2023/06/02 07:07:56;;;;;;;0.65;0.65;;;13.40;99.90;;;;;;4939547;28;20488;-71
2023/06/02 07:10:21;;;;;;;0.57;0.57;;;13.50;99.90;;;;;;4936324;29;20046;-71
2023/06/02 07:12:47;;;;;;;0.40;0.40;;;13.60;99.90;;;;;;4940404;28;20495;-70
2023/06/02 07:15:13;;;;;;;0.32;0.32;;;13.70;99.90;;;;;;4937997;29;20114;-71
2023/06/02 07:17:40;;;;;;;1.20;0.68;;;13.90;99.90;;;;;;4933115;29;20477;-71
2023/06/02 07:20:08;;;;;;;0.70;0.70;;;14.10;99.90;;;;;;4942982;29;20098;-71
2023/06/02 07:22:33;;;;;;;0.50;0.50;;;14.30;99.90;;;;;;4939359;29;20485;-71
2023/06/02 07:25:00;;;;;;;0.43;0.43;;;14.40;99.90;;;;;;4946925;29;20039;-71
2023/06/02 07:27:26;;;;;;;0.60;0.60;;;14.50;99.90;;;;;;4939793;29;20059;-70
2023/06/02 07:29:51;;;;;;;6.80;1.02;;;14.60;99.90;;;;;;4941235;29;20405;-71
2023/06/02 07:32:18;;;;;;;1.67;0.90;;;14.70;99.90;;;;;;4934127;29;20055;-70
2023/06/02 07:34:44;;;;;;;0.80;0.80;;;14.90;99.90;;;;;;4940698;29;20082;-71
2023/06/02 07:37:10;;;;;;;1.20;1.20;;;15.10;99.90;;;;;;4929893;28;20105;-71
2023/06/02 07:39:36;;;;;;;1.02;1.02;;;15.50;99.90;;;;;;4939530;29;20264;-71
2023/06/02 07:42:01;;;;;;;2.53;1.33;;;15.60;99.90;;;;;;4942255;28;20408;-69
2023/06/02 07:44:27;;;;;;;1.42;1.33;;;15.80;99.90;;;;;;4937603;29;20093;-70
2023/06/02 07:46:53;;;;;;;2.05;1.83;;;16.00;99.90;;;;;;4938106;29;20043;-70
2023/06/02 07:49:18;;;;;;;1.08;1.08;;;16.10;99.90;;;;;;4938551;29;20052;-70
2023/06/02 07:51:44;;;;;;;1.58;1.15;;;16.20;99.90;;;;;;4933412;29;20436;-71
2023/06/02 07:54:10;;;;;;;0.50;0.50;;;16.50;99.90;;;;;;4932425;29;20043;-74
2023/06/02 07:56:36;;;;;;;0.70;0.70;;;16.80;99.90;;;;;;4926495;29;20127;-74
2023/06/02 07:59:02;;;;;;;1.50;1.40;;;17.00;99.90;;;;;;4919560;29;20531;-74
2023/06/02 08:01:27;;;;;;;0.95;0.95;;;17.10;99.90;;;;;;4929605;29;20078;-74
2023/06/02 08:03:53;;;;;;;2.53;2.33;;;17.10;99.90;;;;;;4936320;29;20067;-74
2023/06/02 08:06:19;;;;;;;2.08;1.98;;;17.00;99.90;;;;;;4931021;29;20075;-74
2023/06/02 08:08:45;;;;;;;1.42;1.40;;;16.80;99.90;;;;;;4935151;29;20035;-74
2023/06/02 08:11:12;;;;;;;1.20;1.15;;;17.00;99.90;;;;;;4943449;29;20043;-74
2023/06/02 08:13:37;;;;;;;5.55;2.65;;;17.40;99.90;;;;;;4943273;28;20365;-75
2023/06/02 08:16:03;;;;;;;1.23;1.13;;;17.70;99.90;;;;;;4946023;28;20087;-75
2023/06/02 08:18:28;;;;;;;2.95;1.88;;;17.70;99.90;;;;;;4943519;29;20517;-74
2023/06/02 08:20:54;;;;;;;1.48;1.38;;;17.70;99.90;;;;;;4940231;29;20162;-74
2023/06/02 08:23:20;;;;;;;0.40;0.40;;;17.70;99.90;;;;;;4934531;29;20055;-74
2023/06/02 08:25:46;;;;;;;4.55;1.58;;;17.80;99.90;;;;;;4942702;29;20042;-74
2023/06/02 08:28:13;;;;;;;1.80;1.73;;;17.70;99.90;;;;;;4927457;29;20482;-74
2023/06/02 08:30:42;;;;;;;1.50;1.40;;;17.60;99.90;;;;;;4931168;29;20052;-74
2023/06/02 08:33:08;;;;;;;4.13;1.40;;;17.80;99.90;;;;;;4932076;29;20130;-75
2023/06/02 08:35:36;;;;;;;8.88;1.88;;;18.10;99.90;;;;;;4944148;29;20110;-74
2023/06/02 08:38:03;;;;;;;2.00;1.90;;;18.30;99.90;;;;;;4925370;29;20122;-74
2023/06/02 08:40:36;;;;;;;0.83;0.83;;;18.40;99.90;;;;;;4939992;29;20059;-74
2023/06/02 08:43:03;;;;;;;1.45;1.30;;;18.90;99.90;;;;;;4933640;29;20078;-74
2023/06/02 08:45:29;;;;;;;1.65;0.85;;;19.00;99.90;;;;;;4935122;29;20062;-74
2023/06/02 08:47:57;;;;;;;0.98;0.98;;;19.00;98.00;;;;;;4939985;29;20083;-74
2023/06/02 08:50:31;;;;;;;0.40;0.40;;;18.60;94.20;;;;;;4932199;29;20516;-74
2023/06/02 08:53:01;;;;;;;1.13;1.13;;;18.20;95.40;;;;;;4951958;28;20047;-74
2023/06/02 08:55:28;;;;;;;0.95;0.95;;;18.30;98.40;;;;;;4941073;29;20094;-75
2023/06/02 08:57:54;;;;;;;2.45;1.50;;;18.50;98.00;;;;;;4941535;29;20058;-74
2023/06/02 09:00:20;;;;;;;0.68;0.68;;;18.50;96.90;;;;;;4931617;29;20052;-74
2023/06/02 09:02:49;;;;;;;0.82;0.82;;;18.60;96.00;;;;;;4948234;29;20055;-74
2023/06/02 09:05:16;;;;;;;0.65;0.65;;;18.60;96.70;;;;;;4934914;29;20048;-74
2023/06/02 09:07:46;;;;;;;0.63;0.63;;;18.60;96.40;;;;;;4941299;29;20075;-75
2023/06/02 09:10:31;;;;;;;0.77;0.63;;;18.80;95.60;;;;;;4932847;29;20125;-75
2023/06/02 09:12:57;;;;;;;0.85;0.85;;;19.10;94.90;;;;;;4925435;29;20048;-75
2023/06/02 09:15:24;;;;;;;0.82;0.82;;;19.30;93.70;;;;;;4940072;29;20048;-74
2023/06/02 09:17:50;;;;;;;1.20;1.10;;;19.50;92.80;;;;;;4944781;29;20069;-75
2023/06/02 09:20:16;;;;;;;1.13;1.00;;;19.50;90.00;;;;;;4944883;28;20064;-74
2023/06/02 09:22:56;;;;;;;2.50;2.28;;;19.10;90.30;;;;;;4943524;29;20039;-74
2023/06/02 09:25:26;;;;;;;0.82;0.82;;;18.70;90.00;;;;;;4928205;29;20066;-74
2023/06/02 09:27:54;;;;;;;1.65;0.60;;;18.40;87.30;;;;;;4925410;29;20090;-75
2023/06/02 09:30:20;;;;;;;0.98;0.98;;;18.40;91.40;;;;;;4934171;29;20055;-74
2023/06/02 09:33:00;;;;;;;1.08;0.88;;;18.60;91.20;;;;;;4943530;29;21116;-75
2023/06/02 09:35:33;;;;;;;2.33;0.98;;;18.60;88.50;;;;;;4937780;29;20155;-75
2023/06/02 09:37:58;;;;;;;1.23;1.15;;;18.60;90.10;;;;;;4933653;29;20056;-74
2023/06/02 09:40:28;;;;;;;0.50;0.50;;;18.80;90.80;;;;;;4945629;29;20107;-75
2023/06/02 09:42:54;;;;;;;2.92;1.85;;;19.10;90.20;;;;;;4932515;29;20051;-74
2023/06/02 09:45:20;;;;;;;1.55;0.95;;;19.50;87.20;;;;;;4930125;29;20108;-75
2023/06/02 09:47:47;;;;;;;2.50;2.08;;;19.40;88.80;;;;;;4939974;29;20059;-75
2023/06/02 09:50:34;;;;;;;1.13;1.07;;;19.50;85.00;;;;;;4943145;29;20324;-75
2023/06/02 09:53:05;;;;;;;0.70;0.70;;;19.80;85.50;;;;;;4937293;29;20361;-75
2023/06/02 09:55:32;;;;;;;8.02;1.98;;;19.90;86.50;;;;;;4938951;29;20240;-74
2023/06/02 09:57:59;;;;;;;0.80;0.80;;;19.90;80.10;;;;;;4941559;29;20142;-74
2023/06/02 10:00:25;;;;;;;0.93;0.93;;;19.80;80.90;;;;;;4934393;29;20054;-75
2023/06/02 10:02:51;;;;;;;0.68;0.68;;;19.40;80.50;;;;;;4945842;29;20052;-74
2023/06/02 10:05:19;;;;;;;0.68;0.68;;;19.10;82.90;;;;;;4955079;28;20139;-76
2023/06/02 10:08:14;;;;;;;0.68;0.68;;;19.10;83.60;;;;;;4933667;29;20122;-74
2023/06/02 10:11:06;;;;;;;5.78;1.05;;;19.00;81.90;;;;;;4921842;29;20047;-75
2023/06/02 10:13:54;;;;;;;2.35;0.52;;;19.10;84.10;;;;;;4940647;29;20054;-74
2023/06/02 10:16:40;;;;;;;1.63;1.52;;;19.50;82.90;;;;;;4941516;29;20047;-74
2023/06/02 10:19:17;;;;;;;0.75;0.75;;;20.00;78.90;;;;;;4928562;29;20587;-75
2023/06/02 10:22:11;;;;;;;1.00;1.00;;;20.30;75.30;;;;;;4937774;29;20544;-74
2023/06/02 10:24:58;;;;;;;0.60;0.60;;;20.60;75.30;;;;;;4930814;29;20409;-74
2023/06/02 10:27:29;;;;;;;1.03;1.03;;;20.70;72.10;;;;;;4939858;29;20049;-74
2023/06/02 10:29:56;;;;;;;0.60;0.60;;;20.80;70.40;;;;;;4923254;29;20311;-74
2023/06/02 10:32:33;;;;;;;1.55;1.45;;;20.60;72.50;;;;;;4936929;29;20067;-74
2023/06/02 10:34:59;;;;;;;0.60;0.60;;;20.70;73.00;;;;;;4930916;29;20055;-74
2023/06/02 10:37:26;;;;;;;1.38;1.27;;;20.80;71.90;;;;;;4934275;29;20291;-74
2023/06/02 10:39:56;;;;;;;0.57;0.57;;;20.90;69.20;;;;;;4943175;29;20047;-74
2023/06/02 10:42:23;;;;;;;1.33;1.10;;;21.00;68.20;;;;;;4927063;29;20435;-75
2023/06/02 10:44:51;;;;;;;0.35;0.35;;;21.10;68.60;;;;;;4942864;29;20166;-74
2023/06/02 10:47:17;;;;;;;1.73;1.63;;;21.10;68.40;;;;;;4939551;29;20054;-74
2023/06/02 10:50:03;;;;;;;0.73;0.52;;;21.10;66.90;;;;;;4937479;29;20421;-74
2023/06/02 10:52:33;;;;;;;0.73;0.73;;;20.90;70.60;;;;;;4938011;29;20456;-74
2023/06/02 10:55:08;;;;;;;1.73;0.75;;;21.10;73.10;;;;;;4931710;29;20058;-74
2023/06/02 10:58:03;;;;;;;2.65;1.05;;;21.50;73.90;;;;;;4937895;29;20048;-74
2023/06/02 11:00:43;;;;;;;0.80;0.80;;;21.60;68.80;;;;;;4928758;29;20052;-74
2023/06/02 11:03:14;;;;;;;1.00;0.85;;;21.60;66.40;;;;;;4940982;29;20056;-74
2023/06/02 11:05:41;;;;;;;1.00;1.00;;;21.70;61.10;;;;;;4938346;29;20047;-74
2023/06/02 11:08:13;;;;;;;1.13;1.13;;;21.50;64.60;;;;;;4935481;29;20126;-74
2023/06/02 11:10:45;;;;;;;1.65;1.02;;;21.80;66.00;;;;;;4927479;29;20063;-75
2023/06/02 11:13:15;;;;;;;0.95;0.95;;;21.90;59.60;;;;;;4930554;29;20055;-74
2023/06/02 11:15:59;;;;;;;0.55;0.55;;;22.10;61.20;;;;;;4917591;29;20119;-72
2023/06/02 11:18:33;;;;;;;0.57;0.57;;;22.00;59.10;;;;;;4938727;29;20059;-71
2023/06/02 11:21:01;;;;;;;0.75;0.75;;;22.00;60.30;;;;;;4927310;29;20062;-74
2023/06/02 11:23:27;;;;;;;0.55;0.55;;;21.90;57.60;;;;;;4934669;28;20302;-74
2023/06/02 11:26:05;;;;;;;0.40;0.40;;;21.90;57.60;;;;;;4921528;29;20413;-74
2023/06/02 11:28:31;;;;;;;0.52;0.52;;;21.70;58.90;;;;;;4931095;29;20507;-74
2023/06/02 11:31:09;;;;;;;0.50;0.50;;;21.80;62.00;;;;;;4933070;29;20043;-74
2023/06/02 11:33:37;;;;;;;0.32;0.32;;;22.00;61.90;;;;;;4932511;29;20493;-74
2023/06/02 11:36:03;;;;;;;1.38;0.90;;;22.20;58.60;;;;;;4939434;29;20572;-74
2023/06/02 11:38:33;;;;;;;0.40;0.40;;;22.00;57.50;;;;;;4924241;29;20087;-74
2023/06/02 11:41:21;;;;;;;1.23;0.98;;;22.20;56.90;;;;;;4929398;29;20087;-74
2023/06/02 11:43:50;;;;;;;1.45;0.50;;;22.00;56.00;;;;;;4937521;29;20110;-74
2023/06/02 11:46:18;;;;;;;1.02;1.02;;;21.80;59.10;;;;;;4931252;29;20207;-74
2023/06/02 11:48:46;;;;;;;0.85;0.73;;;21.80;56.60;;;;;;4930356;29;20040;-74
2023/06/02 11:51:13;;;;;;;0.50;0.50;;;21.70;58.90;;;;;;4914820;29;20102;-74
2023/06/02 11:53:44;;;;;;;;;;;21.80;58.90;;;;;;4939755;29;20039;-74
2023/06/02 11:56:11;;;;;;;2.22;0.77;;;21.70;58.10;;;;;;4934711;28;19937;-74
2023/06/02 11:58:44;;;;;;;0.88;0.88;;;21.60;57.50;;;;;;4930537;29;20079;-74
2023/06/02 12:01:18;;;;;;;1.40;1.30;;;21.50;57.40;;;;;;4940869;29;20497;-74
2023/06/02 12:04:06;;;;;;;0.43;0.43;;;21.50;60.40;;;;;;4938190;29;20058;-75
2023/06/02 12:06:33;;;;;;;0.50;0.50;;;21.70;58.50;;;;;;4916465;29;20055;-74
2023/06/02 12:09:11;;;;;;;1.27;0.85;;;21.60;55.80;;;;;;4940636;29;20508;-75
2023/06/02 12:11:36;;;;;;;0.68;0.68;;;21.70;57.90;;;;;;4937731;29;20137;-74
2023/06/02 12:14:07;;;;;;;0.40;0.40;;;21.80;59.40;;;;;;4935952;29;20138;-74
2023/06/02 12:16:40;;;;;;;9.68;1.73;;;21.50;56.40;;;;;;4941789;29;20082;-75
2023/06/02 12:19:15;;;;;;;0.50;0.50;;;21.10;56.90;;;;;;4924775;29;20392;-74
2023/06/02 12:21:42;;;;;;;0.55;0.55;;;21.20;59.20;;;;;;4934908;29;20468;-74
2023/06/02 12:24:09;;;;;;;0.75;0.68;;;21.40;60.10;;;;;;4937005;29;20099;-74
2023/06/02 12:26:45;;;;;;;0.30;0.30;;;21.70;59.20;;;;;;4930001;29;20172;-75
2023/06/02 12:29:13;;;;;;;0.40;0.40;;;22.00;58.60;;;;;;4936818;29;20588;-72
2023/06/02 12:31:39;;;;;;;0.50;0.50;;;22.10;59.50;;;;;;4930113;29;20095;-74
2023/06/02 12:34:07;;;;;;;0.63;0.63;;;21.80;59.20;;;;;;4932811;28;20052;-75
2023/06/02 12:36:35;;;;;;;2.83;0.80;;;21.40;60.00;;;;;;4938794;29;20138;-75
2023/06/02 12:39:03;;;;;;;1.55;1.45;;;21.20;61.60;;;;;;4936684;29;20058;-74
2023/06/02 12:41:28;;;;;;;0.93;0.93;;;21.40;61.60;;;;;;4931164;29;20150;-74
2023/06/02 12:43:54;;;;;;;0.40;0.40;;;21.50;59.50;;;;;;4913127;29;20513;-75
2023/06/02 12:46:20;;;;;;;11.38;1.58;;;21.80;61.50;;;;;;4937228;29;20501;-74
2023/06/02 12:48:47;;;;;;;0.43;0.43;;;21.90;61.10;;;;;;4935384;29;20184;-74
2023/06/02 12:51:13;;;;;;;1.83;1.02;;;22.00;61.20;;;;;;4930220;29;20392;-74